Ana Sayfa
METAR-TAF:

METAR-TAF

Havaalanları :

Kenai, Alaska, Amerika Birleşik Devletleri

Enlem: 60-34-23N, Boylam: 151-14-42W, yükseklik: 30 m

Güncel hava durumu gözlemi

Rapor saat 07:53 UTC de 1 saat ve 7 dakika önce yapıldı.
Sakin rüzgar
Sıcaklık 11°C
Nem 87%
Basınç 1021 hPa
Görüş mesafesi: 16.1 km
3700 ft yükseklikte parçalı bulutlu
6500 ft yükseklikte çok bulutlu

METAR: PAEN 190753Z AUTO 00000KT 10SM SCT037 OVC065 11/09 A3015 RMK AO2 SLP212 T01110089 TSNO

Saat: 01:00 (09:00 UTC)

Tahmin

Rapor saat 05:30 UTC de 3 saat ve 30 dakika önce yapıldı.
Ayın 19'si saat 06 UTC'den ayın 20'si saat 06 UTC'ye kadar geçerli Tahmin
Rüzgar değişken yönden 4 kt
Görüş mesafesi: 10 km
4000 ft yükseklikte parçalı bulutlu
6000 ft yükseklikte çok bulutlu
Ayın 19'si saat 2000 UTC'den
Rüzgar kuzeybatıdan 7 kt
Görüş mesafesi: 10 km
Açık gökyüzü

TAF: PAEN 190530Z 1906/2006 VRB04KT P6SM SCT040 OVC060 FM192000 31007KT P6SM SKC

4.000'den fazla havaalanı için hava durumu gözlemleri ve tahminleri (METAR ve TAF raporları).

Kullanılabilir istasyonlar harita üzerinde sarı ve kırmızı noktalarla gösterilir.

İstasyonun adını görmek için fareyi noktanın üzerinde gezdirin.

Sonrasında hava gözlem ve tahminlerini görmek için tıklayın.

Haritayı değiştirmek için: yaklaştırmak için siyah artı işaretli yeşil düğmeye ve uzaklaştırmak için de eksi işaretli düğmeye hızla tıklayın; bitişik haritalar için yeşil okları kullanın.


METAR-TAF: